createdAt,value
2023-02-28T00:02:00.959Z,103181.88
2023-02-28T00:05:07.791Z,103175.72
2023-02-28T00:08:11.736Z,103178.22
2023-02-28T00:11:17.998Z,103173.09
2023-02-28T00:14:21.692Z,103175.72
2023-02-28T00:17:25.262Z,103173.91
2023-02-28T00:20:30.653Z,103167.00
2023-02-28T00:23:34.570Z,103167.84
2023-02-28T00:26:38.266Z,103167.75
2023-02-28T00:29:42.544Z,103174.56
2023-02-28T00:32:46.765Z,103174.56
2023-02-28T00:35:52.572Z,103175.47
2023-02-28T00:38:56.464Z,103174.31
2023-02-28T00:42:00.113Z,103172.81
2023-02-28T00:45:05.738Z,103171.31
2023-02-28T00:48:09.362Z,103171.56
2023-02-28T00:51:14.444Z,103180.78
2023-02-28T00:54:18.592Z,103180.31
2023-02-28T00:57:22.321Z,103179.28
2023-02-28T01:00:26.166Z,103180.09
2023-02-28T01:03:30.092Z,103185.84
2023-02-28T01:06:35.170Z,103199.50
2023-02-28T01:09:38.968Z,103198.78
2023-02-28T01:12:42.580Z,103193.63
2023-02-28T01:15:53.213Z,103191.91
2023-02-28T01:18:56.901Z,103188.44
2023-02-28T01:22:04.315Z,103191.16
2023-02-28T01:25:09.095Z,103194.44
2023-02-28T01:28:12.784Z,103203.06
2023-02-28T01:31:20.196Z,103204.91
2023-02-28T01:34:23.838Z,103193.72
2023-02-28T01:37:29.224Z,103200.56
2023-02-28T01:40:33.090Z,103194.66
2023-02-28T01:44:07.041Z,103189.63
2023-02-28T01:47:10.697Z,103190.38
2023-02-28T01:50:20.308Z,103192.84
2023-02-28T01:53:34.724Z,103199.84
2023-02-28T01:56:39.533Z,103197.13
2023-02-28T01:59:53.431Z,103192.81
2023-02-28T02:03:02.753Z,103192.91
2023-02-28T02:06:07.105Z,103194.31
2023-02-28T02:09:12.612Z,103192.44
2023-02-28T02:12:37.054Z,103197.22
2023-02-28T02:15:49.699Z,103189.66
2023-02-28T02:19:00.210Z,103187.13
2023-02-28T02:22:34.108Z,103181.56
2023-02-28T02:25:47.344Z,103188.56
2023-02-28T02:29:40.219Z,103178.47
2023-02-28T02:33:05.724Z,103184.97
2023-02-28T02:36:19.936Z,103177.22
2023-02-28T02:39:36.006Z,103177.03
2023-02-28T02:42:51.871Z,103178.19
2023-02-28T02:46:01.781Z,103181.47
2023-02-28T02:49:11.663Z,103185.06
2023-02-28T02:52:23.296Z,103173.00
2023-02-28T02:55:30.895Z,103188.00
2023-02-28T02:58:44.342Z,103181.22
2023-02-28T03:01:48.181Z,103182.22
2023-02-28T03:05:01.705Z,103181.00
2023-02-28T03:08:08.332Z,103182.59
2023-02-28T03:11:17.934Z,103189.34
2023-02-28T03:14:58.242Z,103178.47
2023-02-28T03:18:10.843Z,103183.72
2023-02-28T03:21:25.833Z,103185.47
2023-02-28T03:24:42.874Z,103185.03
2023-02-28T03:28:02.764Z,103189.13
2023-02-28T03:31:19.380Z,103180.22
2023-02-28T03:34:31.618Z,103183.25
2023-02-28T03:37:40.444Z,103188.47
2023-02-28T03:40:52.351Z,103192.50
2023-02-28T03:44:01.275Z,103192.06
2023-02-28T03:47:11.429Z,103194.09
2023-02-28T03:50:22.630Z,103188.75
2023-02-28T03:53:33.573Z,103195.00
2023-02-28T03:56:45.148Z,103197.19
2023-02-28T03:59:56.972Z,103200.84
2023-02-28T04:03:01.214Z,103197.03
2023-02-28T04:06:06.315Z,103198.81
2023-02-28T04:09:14.166Z,103208.72
2023-02-28T04:12:19.157Z,103210.41
2023-02-28T04:15:23.934Z,103203.75
2023-02-28T04:18:27.713Z,103214.69
2023-02-28T04:21:31.943Z,103210.06
2023-02-28T04:24:35.759Z,103223.84
2023-02-28T04:27:40.802Z,103215.00
2023-02-28T04:30:44.381Z,103214.25
2023-02-28T04:33:48.033Z,103217.44
2023-02-28T04:37:02.717Z,103217.44
2023-02-28T04:40:15.676Z,103217.16
2023-02-28T04:43:20.718Z,103226.66
2023-02-28T04:46:25.487Z,103215.50
2023-02-28T04:49:29.258Z,103214.56
2023-02-28T04:52:32.855Z,103210.50
2023-02-28T04:55:36.505Z,103217.81
2023-02-28T04:58:41.893Z,103210.22
2023-02-28T05:01:49.776Z,103209.03
2023-02-28T05:04:53.481Z,103212.34
2023-02-28T05:07:57.449Z,103202.06
2023-02-28T05:11:01.822Z,103216.22
2023-02-28T05:14:11.573Z,103215.16
2023-02-28T05:17:15.185Z,103215.31
2023-02-28T05:20:19.505Z,103221.19
2023-02-28T05:23:25.700Z,103225.28
2023-02-28T05:26:30.093Z,103225.28
2023-02-28T05:29:35.230Z,103229.38
2023-02-28T05:32:39.066Z,103235.09
2023-02-28T05:35:44.211Z,103235.19
2023-02-28T05:38:50.137Z,103236.78
2023-02-28T05:41:53.844Z,103227.94
2023-02-28T05:44:58.790Z,103232.03
2023-02-28T05:48:02.487Z,103232.63
2023-02-28T05:51:07.656Z,103226.09
2023-02-28T05:54:13.806Z,103232.94
2023-02-28T05:57:24.441Z,103228.94
2023-02-28T06:00:30.270Z,103241.38
2023-02-28T06:03:33.875Z,103245.66
2023-02-28T06:06:38.415Z,103252.25
2023-02-28T06:09:42.661Z,103253.53
2023-02-28T06:12:46.282Z,103256.91
2023-02-28T06:15:51.279Z,103262.72
2023-02-28T06:18:56.773Z,103267.56
2023-02-28T06:22:00.808Z,103266.72
2023-02-28T06:25:04.577Z,103258.59
2023-02-28T06:28:08.317Z,103270.22
2023-02-28T06:31:16.981Z,103271.63
2023-02-28T06:34:20.648Z,103268.88
2023-02-28T06:37:27.130Z,103267.22
2023-02-28T06:40:32.924Z,103272.81
2023-02-28T06:43:39.994Z,103278.31
2023-02-28T06:46:46.745Z,103280.88
2023-02-28T06:49:50.837Z,103282.75
2023-02-28T06:52:56.679Z,103283.88
2023-02-28T06:56:00.304Z,103281.22
2023-02-28T06:59:04.580Z,103271.06
2023-02-28T07:02:11.092Z,103280.81
2023-02-28T07:05:14.753Z,103281.97
2023-02-28T07:08:18.511Z,103280.25
2023-02-28T07:11:26.426Z,103285.13
2023-02-28T07:14:30.236Z,103287.50
2023-02-28T07:17:35.130Z,103289.94
2023-02-28T07:20:38.865Z,103287.59
2023-02-28T07:23:43.231Z,103290.25
2023-02-28T07:26:46.910Z,103299.69
2023-02-28T07:29:50.468Z,103295.97
2023-02-28T07:32:57.146Z,103291.50
2023-02-28T07:36:04.395Z,103288.09
2023-02-28T07:39:10.615Z,103292.09
2023-02-28T07:42:14.436Z,103292.72
2023-02-28T07:45:24.410Z,103291.75
2023-02-28T07:48:29.433Z,103292.34
2023-02-28T07:51:34.010Z,103290.81
2023-02-28T07:54:37.653Z,103292.28
2023-02-28T07:57:42.352Z,103284.34
2023-02-28T08:00:46.016Z,103293.47
2023-02-28T08:03:51.557Z,103287.91
2023-02-28T08:06:55.146Z,103297.91
2023-02-28T08:09:58.817Z,103302.41
2023-02-28T08:13:02.548Z,103298.56
2023-02-28T08:16:06.854Z,103300.00
2023-02-28T08:19:11.821Z,103296.69
2023-02-28T08:22:15.972Z,103296.00
2023-02-28T08:25:19.921Z,103300.91
2023-02-28T08:28:25.546Z,103300.69
2023-02-28T08:31:30.963Z,103298.97
2023-02-28T08:34:36.183Z,103297.25
2023-02-28T08:37:39.868Z,103305.88
2023-02-28T08:40:43.845Z,103302.13
2023-02-28T08:43:47.431Z,103287.56
2023-02-28T08:46:51.163Z,103283.69
2023-02-28T08:49:56.164Z,103287.03
2023-02-28T08:53:00.892Z,103282.06
2023-02-28T08:56:08.466Z,103286.94
2023-02-28T08:59:12.264Z,103286.53
2023-02-28T09:02:16.675Z,103283.72
2023-02-28T09:05:21.654Z,103298.59
2023-02-28T09:08:26.859Z,103288.00
2023-02-28T09:11:30.836Z,103281.94
2023-02-28T09:14:34.477Z,103291.03
2023-02-28T09:17:38.176Z,103286.78
2023-02-28T09:20:44.736Z,103289.00
2023-02-28T09:23:51.872Z,103291.78
2023-02-28T09:27:05.085Z,103285.91
2023-02-28T09:30:11.179Z,103284.16
2023-02-28T09:33:15.277Z,103283.63
2023-02-28T09:36:23.239Z,103284.03
2023-02-28T09:39:29.838Z,103283.13
2023-02-28T09:42:36.445Z,103284.66
2023-02-28T09:45:44.987Z,103280.84
2023-02-28T09:48:51.562Z,103283.69
2023-02-28T09:52:01.890Z,103280.66
2023-02-28T09:55:24.546Z,103293.25
2023-02-28T09:58:36.884Z,103291.25
2023-02-28T10:01:56.997Z,103287.91
2023-02-28T10:05:07.210Z,103289.91
2023-02-28T10:08:18.091Z,103292.47
2023-02-28T10:11:23.974Z,103285.47
2023-02-28T10:14:31.746Z,103295.84
2023-02-28T10:17:55.351Z,103295.59
2023-02-28T10:21:06.384Z,103297.91
2023-02-28T10:24:25.720Z,103298.00
2023-02-28T10:27:33.596Z,103295.63
2023-02-28T10:30:41.470Z,103305.44
2023-02-28T10:33:45.760Z,103303.47
2023-02-28T10:36:51.568Z,103292.91
2023-02-28T10:39:57.407Z,103303.16
2023-02-28T10:43:03.866Z,103289.19
2023-02-28T10:46:26.896Z,103295.25
2023-02-28T10:49:31.838Z,103284.69
2023-02-28T10:52:40.307Z,103278.94
2023-02-28T10:55:45.696Z,103287.31
2023-02-28T10:58:57.000Z,103280.56
2023-02-28T11:02:00.623Z,103290.72
2023-02-28T11:05:04.515Z,103288.25
2023-02-28T11:08:16.175Z,103282.75
2023-02-28T11:11:24.714Z,103285.34
2023-02-28T11:14:32.591Z,103283.25
2023-02-28T11:17:37.366Z,103275.34
2023-02-28T11:20:42.568Z,103282.69
2023-02-28T11:23:46.408Z,103276.50
2023-02-28T11:26:52.050Z,103275.78
2023-02-28T11:29:56.104Z,103281.28
2023-02-28T11:32:59.943Z,103276.97
2023-02-28T11:36:12.180Z,103272.91
2023-02-28T11:39:18.367Z,103271.81
2023-02-28T11:42:56.707Z,103267.63
2023-02-28T11:46:23.100Z,103270.00
2023-02-28T11:49:40.492Z,103262.63
2023-02-28T11:52:54.493Z,103265.13
2023-02-28T11:56:12.314Z,103251.38
2023-02-28T11:59:48.494Z,103253.88
2023-02-28T12:03:14.656Z,103249.56
2023-02-28T12:06:31.613Z,103248.75
2023-02-28T12:09:59.974Z,103242.19
2023-02-28T12:13:24.129Z,103236.97
2023-02-28T12:16:59.591Z,103235.78
2023-02-28T12:20:17.628Z,103231.13
2023-02-28T12:23:50.629Z,103230.03
2023-02-28T12:27:00.156Z,103212.91
2023-02-28T12:30:08.647Z,103214.19
2023-02-28T12:33:19.102Z,103204.88
2023-02-28T12:36:25.044Z,103202.00
2023-02-28T12:39:41.677Z,103198.34
2023-02-28T12:42:58.890Z,103196.75
2023-02-28T12:46:12.411Z,103185.88
2023-02-28T12:49:24.055Z,103175.53
2023-02-28T12:52:43.284Z,103182.00
2023-02-28T12:55:59.861Z,103175.03
2023-02-28T12:59:13.639Z,103165.88
2023-02-28T13:03:08.676Z,103177.06
2023-02-28T13:06:43.662Z,103170.06
2023-02-28T13:09:56.055Z,103172.19
2023-02-28T13:12:59.839Z,103165.91
2023-02-28T13:16:08.142Z,103151.41
2023-02-28T13:19:14.544Z,103155.63
2023-02-28T13:22:41.307Z,103150.19
2023-02-28T13:25:56.133Z,103153.16
2023-02-28T13:29:21.743Z,103157.16
2023-02-28T13:32:42.502Z,103148.47
2023-02-28T13:35:48.345Z,103137.91
2023-02-28T13:38:54.408Z,103149.94
2023-02-28T13:41:58.178Z,103146.19
2023-02-28T13:45:31.077Z,103141.78
2023-02-28T13:48:36.924Z,103141.59
2023-02-28T13:51:47.883Z,103131.69
2023-02-28T13:55:30.010Z,103129.31
2023-02-28T13:58:55.451Z,103126.13
2023-02-28T14:02:36.725Z,103124.44
2023-02-28T14:05:42.248Z,103121.69
2023-02-28T14:08:58.293Z,103115.03
2023-02-28T14:12:55.733Z,103115.59
2023-02-28T14:16:02.231Z,103120.72
2023-02-28T14:19:16.309Z,103123.81
2023-02-28T14:22:51.315Z,103126.81
2023-02-28T14:26:07.948Z,103134.16
2023-02-28T14:29:36.630Z,103132.16
2023-02-28T14:32:53.428Z,103127.72
2023-02-28T14:36:09.501Z,103130.88
2023-02-28T14:39:21.165Z,103129.88
2023-02-28T14:42:33.169Z,103124.72
2023-02-28T14:45:39.504Z,103127.63
2023-02-28T14:48:43.200Z,103126.50
2023-02-28T14:51:48.379Z,103131.69
2023-02-28T14:54:58.958Z,103132.50
2023-02-28T14:58:07.523Z,103128.94
2023-02-28T15:01:13.746Z,103133.22
2023-02-28T15:04:29.865Z,103130.66
2023-02-28T15:07:33.818Z,103130.16
2023-02-28T15:10:41.529Z,103133.53
2023-02-28T15:13:49.724Z,103128.59
2023-02-28T15:17:01.673Z,103133.00
2023-02-28T15:20:06.749Z,103135.41
2023-02-28T15:23:12.135Z,103137.84
2023-02-28T15:26:22.688Z,103137.38
2023-02-28T15:29:31.894Z,103126.59
2023-02-28T15:32:39.890Z,103129.38
2023-02-28T15:35:43.909Z,103127.59
2023-02-28T15:38:55.037Z,103138.63
2023-02-28T15:42:24.773Z,103133.44
2023-02-28T15:45:38.590Z,103131.53
2023-02-28T15:48:53.600Z,103128.94
2023-02-28T15:52:01.846Z,103121.66
2023-02-28T15:55:14.794Z,103126.25
2023-02-28T15:58:22.866Z,103125.31
2023-02-28T16:01:31.473Z,103120.97
2023-02-28T16:04:35.985Z,103110.63
2023-02-28T16:07:42.558Z,103104.03
2023-02-28T16:10:47.089Z,103104.28
2023-02-28T16:13:55.030Z,103108.50
2023-02-28T16:17:13.958Z,103110.78
2023-02-28T16:20:21.690Z,103108.41
2023-02-28T16:23:25.650Z,103113.41
2023-02-28T16:26:29.851Z,103107.16
2023-02-28T16:29:38.694Z,103107.00
2023-02-28T16:32:43.038Z,103110.09
2023-02-28T16:35:46.809Z,103118.66
2023-02-28T16:38:51.486Z,103120.38
2023-02-28T16:41:55.499Z,103110.63
2023-02-28T16:45:00.645Z,103125.91
2023-02-28T16:48:04.405Z,103126.25
2023-02-28T16:51:08.453Z,103126.00
2023-02-28T16:54:12.234Z,103124.84
2023-02-28T16:57:24.219Z,103128.03
2023-02-28T17:00:31.809Z,103129.50
2023-02-28T17:03:37.404Z,103129.03
2023-02-28T17:06:42.566Z,103135.72
2023-02-28T17:09:47.012Z,103138.91
2023-02-28T17:12:51.160Z,103140.25
2023-02-28T17:15:57.118Z,103141.63
2023-02-28T17:19:03.799Z,103146.63
2023-02-28T17:22:07.535Z,103147.88
2023-02-28T17:25:13.156Z,103156.09
2023-02-28T17:28:16.853Z,103159.97
2023-02-28T17:31:22.138Z,103159.50
2023-02-28T17:34:25.984Z,103164.34
2023-02-28T17:37:30.013Z,103165.63
2023-02-28T17:40:34.994Z,103167.00
2023-02-28T17:43:39.396Z,103162.19
2023-02-28T17:46:46.044Z,103161.84
2023-02-28T17:49:50.087Z,103169.31
2023-02-28T17:52:53.821Z,103166.34
2023-02-28T17:55:57.472Z,103167.03
2023-02-28T17:59:01.257Z,103164.84
2023-02-28T18:02:06.281Z,103174.69
2023-02-28T18:05:11.409Z,103173.50
2023-02-28T18:08:18.040Z,103179.25
2023-02-28T18:11:23.215Z,103188.13
2023-02-28T18:14:27.991Z,103185.88
2023-02-28T18:17:33.256Z,103189.84
2023-02-28T18:20:36.995Z,103191.34
2023-02-28T18:23:47.789Z,103189.44
2023-02-28T18:26:52.599Z,103181.56
2023-02-28T18:29:56.467Z,103178.91
2023-02-28T18:33:03.260Z,103176.97
2023-02-28T18:36:08.254Z,103179.19
2023-02-28T18:39:12.412Z,103179.56
2023-02-28T18:42:16.175Z,103180.94
2023-02-28T18:45:40.972Z,103181.34
2023-02-28T18:48:47.226Z,103179.44
2023-02-28T18:51:51.143Z,103179.19
2023-02-28T18:54:54.922Z,103175.50
2023-02-28T18:57:58.700Z,103178.78
2023-02-28T19:01:03.732Z,103172.50
2023-02-28T19:04:09.578Z,103174.69
2023-02-28T19:07:13.545Z,103174.31
2023-02-28T19:10:17.954Z,103170.22
2023-02-28T19:13:22.675Z,103177.97
2023-02-28T19:16:28.122Z,103183.75
2023-02-28T19:19:33.462Z,103177.53
2023-02-28T19:22:38.159Z,103179.13
2023-02-28T19:25:43.463Z,103178.91
2023-02-28T19:28:47.651Z,103181.25
2023-02-28T19:31:53.334Z,103179.34
2023-02-28T19:34:59.041Z,103182.22
2023-02-28T19:38:02.808Z,103186.19
2023-02-28T19:41:09.293Z,103190.75
2023-02-28T19:44:14.576Z,103186.41
2023-02-28T19:47:19.702Z,103204.38
2023-02-28T19:50:26.616Z,103206.97
2023-02-28T19:53:33.242Z,103204.53
2023-02-28T19:56:37.108Z,103211.34
2023-02-28T19:59:41.446Z,103213.59
2023-02-28T20:02:45.475Z,103212.22
2023-02-28T20:06:02.267Z,103221.34
2023-02-28T20:09:06.059Z,103228.66
2023-02-28T20:12:23.119Z,103223.09
2023-02-28T20:15:28.050Z,103215.88
2023-02-28T20:18:32.381Z,103216.53
2023-02-28T20:21:37.718Z,103223.19
2023-02-28T20:24:41.505Z,103214.03
2023-02-28T20:27:45.418Z,103211.94
2023-02-28T20:30:49.473Z,103217.59
2023-02-28T20:33:54.274Z,103214.78
2023-02-28T20:36:59.747Z,103220.53
2023-02-28T20:40:04.558Z,103224.63
2023-02-28T20:43:08.421Z,103221.81
2023-02-28T20:46:13.247Z,103222.63
2023-02-28T20:49:17.522Z,103226.16
2023-02-28T20:52:22.569Z,103221.50
2023-02-28T20:55:26.331Z,103227.75
2023-02-28T20:58:32.929Z,103232.31
2023-02-28T21:01:36.658Z,103229.81
2023-02-28T21:04:40.497Z,103237.94
2023-02-28T21:07:46.097Z,103233.25
2023-02-28T21:10:49.872Z,103237.44
2023-02-28T21:13:54.437Z,103240.66
2023-02-28T21:16:58.245Z,103228.59
2023-02-28T21:20:02.107Z,103237.13
2023-02-28T21:23:07.269Z,103236.94
2023-02-28T21:26:14.693Z,103231.66
2023-02-28T21:29:18.294Z,103233.97
2023-02-28T21:32:22.175Z,103229.63
2023-02-28T21:35:26.033Z,103228.03
2023-02-28T21:38:31.691Z,103226.25
2023-02-28T21:41:36.087Z,103222.69
2023-02-28T21:44:39.820Z,103221.03
2023-02-28T21:47:43.827Z,103232.06
2023-02-28T21:50:57.914Z,103233.81
2023-02-28T21:54:03.538Z,103230.28
2023-02-28T21:57:07.245Z,103226.59
2023-02-28T22:00:13.293Z,103238.22
2023-02-28T22:03:17.067Z,103244.00
2023-02-28T22:06:24.223Z,103242.94
2023-02-28T22:09:29.858Z,103242.38
2023-02-28T22:12:33.880Z,103243.81
2023-02-28T22:15:38.466Z,103247.97
2023-02-28T22:18:44.441Z,103255.78
2023-02-28T22:21:48.259Z,103248.94
2023-02-28T22:24:53.837Z,103247.09
2023-02-28T22:27:57.447Z,103247.78
2023-02-28T22:31:02.519Z,103249.06
2023-02-28T22:34:08.995Z,103252.25
2023-02-28T22:37:13.023Z,103238.50
2023-02-28T22:40:18.501Z,103243.75
2023-02-28T22:43:22.321Z,103241.16
2023-02-28T22:46:30.096Z,103232.59
2023-02-28T22:49:33.967Z,103225.88
2023-02-28T22:52:40.965Z,103230.81
2023-02-28T22:55:46.130Z,103230.09
2023-02-28T22:58:51.925Z,103223.09
2023-02-28T23:01:55.678Z,103217.97
2023-02-28T23:04:59.468Z,103230.03
2023-02-28T23:08:03.147Z,103225.78
2023-02-28T23:11:08.370Z,103238.97
2023-02-28T23:14:14.402Z,103252.28
2023-02-28T23:17:18.402Z,103250.25
2023-02-28T23:20:22.976Z,103251.16
2023-02-28T23:23:27.396Z,103251.69
2023-02-28T23:26:33.647Z,103254.97
2023-02-28T23:29:38.145Z,103252.31
2023-02-28T23:32:43.256Z,103258.16
2023-02-28T23:35:47.232Z,103261.69
2023-02-28T23:38:53.728Z,103267.81
2023-02-28T23:41:59.521Z,103263.47
2023-02-28T23:45:04.383Z,103275.44
2023-02-28T23:48:08.401Z,103273.03
2023-02-28T23:51:17.873Z,103270.56
2023-02-28T23:54:21.904Z,103268.91
2023-02-28T23:57:27.240Z,103273.59
